sensor_id;sensor_type;location;lat;lon;timestamp;pressure;altitude;pressure_sealevel;temperature;humidity
11349;BME280;5729;43.570;27.826;2023-04-07T00:00:52;98897.97;;;6.04;100.00
11349;BME280;5729;43.570;27.826;2023-04-07T00:03:17;98899.00;;;6.12;100.00
11349;BME280;5729;43.570;27.826;2023-04-07T00:05:43;98901.44;;;6.05;100.00
11349;BME280;5729;43.570;27.826;2023-04-07T00:08:08;98900.56;;;6.13;100.00
11349;BME280;5729;43.570;27.826;2023-04-07T00:10:34;98899.00;;;6.12;100.00
11349;BME280;5729;43.570;27.826;2023-04-07T00:12:59;98905.91;;;6.13;100.00
11349;BME280;5729;43.570;27.826;2023-04-07T00:15:25;98876.06;;;5.90;100.00
11349;BME280;5729;43.570;27.826;2023-04-07T00:17:51;98911.75;;;5.94;100.00
11349;BME280;5729;43.570;27.826;2023-04-07T00:20:16;98904.63;;;5.98;100.00
11349;BME280;5729;43.570;27.826;2023-04-07T00:22:42;98903.94;;;5.89;100.00
11349;BME280;5729;43.570;27.826;2023-04-07T00:25:07;98903.44;;;5.87;100.00
11349;BME280;5729;43.570;27.826;2023-04-07T00:27:33;98910.34;;;5.97;100.00
11349;BME280;5729;43.570;27.826;2023-04-07T00:29:58;98902.72;;;5.99;100.00
11349;BME280;5729;43.570;27.826;2023-04-07T00:32:24;98905.53;;;6.02;100.00
11349;BME280;5729;43.570;27.826;2023-04-07T00:34:49;98917.47;;;6.05;100.00
11349;BME280;5729;43.570;27.826;2023-04-07T00:37:15;98910.34;;;5.97;100.00
11349;BME280;5729;43.570;27.826;2023-04-07T00:39:40;98906.00;;;6.04;100.00
11349;BME280;5729;43.570;27.826;2023-04-07T00:42:06;98903.00;;;6.06;100.00
11349;BME280;5729;43.570;27.826;2023-04-07T00:44:32;98900.31;;;6.06;100.00
11349;BME280;5729;43.570;27.826;2023-04-07T00:46:58;98907.38;;;5.90;100.00
11349;BME280;5729;43.570;27.826;2023-04-07T00:49:26;98904.44;;;6.03;100.00
11349;BME280;5729;43.570;27.826;2023-04-07T00:51:58;98912.75;;;5.90;100.00
11349;BME280;5729;43.570;27.826;2023-04-07T00:54:24;98911.03;;;5.85;100.00
11349;BME280;5729;43.570;27.826;2023-04-07T00:56:50;98912.59;;;5.86;100.00
11349;BME280;5729;43.570;27.826;2023-04-07T00:59:16;98922.06;;;5.83;100.00
11349;BME280;5729;43.570;27.826;2023-04-07T01:02:09;98913.25;;;5.83;100.00
11349;BME280;5729;43.570;27.826;2023-04-07T01:07:29;98911.31;;;5.71;100.00
11349;BME280;5729;43.570;27.826;2023-04-07T01:10:02;98908.78;;;5.75;100.00
11349;BME280;5729;43.570;27.826;2023-04-07T01:12:50;98911.78;;;5.73;100.00
11349;BME280;5729;43.570;27.826;2023-04-07T01:15:20;98891.56;;;5.64;100.00
11349;BME280;5729;43.570;27.826;2023-04-07T01:17:54;98918.16;;;5.81;100.00
11349;BME280;5729;43.570;27.826;2023-04-07T01:20:22;98915.28;;;5.86;100.00
11349;BME280;5729;43.570;27.826;2023-04-07T01:22:53;98908.69;;;5.83;100.00
11349;BME280;5729;43.570;27.826;2023-04-07T01:28:33;98908.19;;;5.90;100.00
11349;BME280;5729;43.570;27.826;2023-04-07T01:31:04;98907.38;;;5.90;100.00
11349;BME280;5729;43.570;27.826;2023-04-07T01:33:31;98915.47;;;6.02;100.00
11349;BME280;5729;43.570;27.826;2023-04-07T01:36:01;98909.56;;;5.88;100.00
11349;BME280;5729;43.570;27.826;2023-04-07T01:38:28;98906.66;;;6.01;100.00
11349;BME280;5729;43.570;27.826;2023-04-07T01:40:55;98912.00;;;6.01;100.00
11349;BME280;5729;43.570;27.826;2023-04-07T01:43:22;98903.97;;;6.01;100.00
11349;BME280;5729;43.570;27.826;2023-04-07T01:45:49;98880.31;;;5.91;100.00
11349;BME280;5729;43.570;27.826;2023-04-07T01:48:15;98896.53;;;6.07;100.00
11349;BME280;5729;43.570;27.826;2023-04-07T01:50:43;98902.50;;;5.92;100.00
11349;BME280;5729;43.570;27.826;2023-04-07T01:53:10;98898.53;;;5.98;100.00
11349;BME280;5729;43.570;27.826;2023-04-07T01:55:36;98893.94;;;5.98;100.00
11349;BME280;5729;43.570;27.826;2023-04-07T01:58:06;98900.31;;;6.06;100.00
11349;BME280;5729;43.570;27.826;2023-04-07T02:00:31;98893.59;;;6.00;100.00
11349;BME280;5729;43.570;27.826;2023-04-07T02:03:05;98895.41;;;5.87;100.00
11349;BME280;5729;43.570;27.826;2023-04-07T02:05:33;98868.75;;;5.78;100.00
11349;BME280;5729;43.570;27.826;2023-04-07T02:08:03;98889.97;;;5.83;100.00
11349;BME280;5729;43.570;27.826;2023-04-07T02:10:32;98890.38;;;5.94;100.00
11349;BME280;5729;43.570;27.826;2023-04-07T02:13:00;98895.91;;;5.89;100.00
11349;BME280;5729;43.570;27.826;2023-04-07T02:15:29;98886.19;;;5.84;100.00
11349;BME280;5729;43.570;27.826;2023-04-07T02:17:57;98884.63;;;5.83;100.00
11349;BME280;5729;43.570;27.826;2023-04-07T02:20:24;98887.03;;;5.76;100.00
11349;BME280;5729;43.570;27.826;2023-04-07T02:22:49;98892.38;;;5.76;100.00
11349;BME280;5729;43.570;27.826;2023-04-07T02:25:24;98895.41;;;5.75;100.00
11349;BME280;5729;43.570;27.826;2023-04-07T02:27:50;98892.53;;;5.59;100.00
11349;BME280;5729;43.570;27.826;2023-04-07T02:30:16;98897.69;;;5.64;100.00
11349;BME280;5729;43.570;27.826;2023-04-07T02:32:41;98903.75;;;5.73;100.00
11349;BME280;5729;43.570;27.826;2023-04-07T02:35:07;98898.03;;;5.63;100.00
11349;BME280;5729;43.570;27.826;2023-04-07T02:37:32;98906.53;;;5.77;100.00
11349;BME280;5729;43.570;27.826;2023-04-07T02:39:58;98908.56;;;5.80;100.00
11349;BME280;5729;43.570;27.826;2023-04-07T02:42:23;98907.78;;;5.79;100.00
11349;BME280;5729;43.570;27.826;2023-04-07T02:44:49;98909.16;;;5.86;100.00
11349;BME280;5729;43.570;27.826;2023-04-07T02:47:14;98912.47;;;5.82;100.00
11349;BME280;5729;43.570;27.826;2023-04-07T02:49:40;98915.94;;;5.83;100.00
11349;BME280;5729;43.570;27.826;2023-04-07T02:52:05;98911.56;;;5.78;100.00
11349;BME280;5729;43.570;27.826;2023-04-07T02:54:31;98929.44;;;5.87;100.00
11349;BME280;5729;43.570;27.826;2023-04-07T02:56:56;98925.06;;;5.82;100.00
11349;BME280;5729;43.570;27.826;2023-04-07T02:59:22;98930.34;;;5.91;100.00
11349;BME280;5729;43.570;27.826;2023-04-07T03:01:48;98930.72;;;5.80;100.00
11349;BME280;5729;43.570;27.826;2023-04-07T03:04:13;98924.47;;;5.76;100.00
11349;BME280;5729;43.570;27.826;2023-04-07T03:06:38;98932.44;;;5.85;100.00
11349;BME280;5729;43.570;27.826;2023-04-07T03:09:05;98934.78;;;5.87;100.00
11349;BME280;5729;43.570;27.826;2023-04-07T03:11:30;98934.91;;;5.90;100.00
11349;BME280;5729;43.570;27.826;2023-04-07T03:13:56;98932.72;;;5.92;100.00
11349;BME280;5729;43.570;27.826;2023-04-07T03:16:21;98940.31;;;6.02;100.00
11349;BME280;5729;43.570;27.826;2023-04-07T03:18:47;98932.75;;;5.83;100.00
11349;BME280;5729;43.570;27.826;2023-04-07T03:21:12;98937.66;;;5.81;100.00
11349;BME280;5729;43.570;27.826;2023-04-07T03:23:37;98946.06;;;5.92;100.00
11349;BME280;5729;43.570;27.826;2023-04-07T03:26:03;98933.28;;;5.98;100.00
11349;BME280;5729;43.570;27.826;2023-04-07T03:28:28;98944.19;;;5.93;100.00
11349;BME280;5729;43.570;27.826;2023-04-07T03:30:54;98940.97;;;5.99;100.00
11349;BME280;5729;43.570;27.826;2023-04-07T03:33:20;98946.91;;;6.05;100.00
11349;BME280;5729;43.570;27.826;2023-04-07T03:35:46;98941.66;;;5.96;100.00
11349;BME280;5729;43.570;27.826;2023-04-07T03:38:11;98944.19;;;5.93;100.00
11349;BME280;5729;43.570;27.826;2023-04-07T03:40:37;98942.81;;;5.87;100.00
11349;BME280;5729;43.570;27.826;2023-04-07T03:43:02;98953.97;;;5.89;100.00
11349;BME280;5729;43.570;27.826;2023-04-07T03:45:28;98949.25;;;5.86;100.00
11349;BME280;5729;43.570;27.826;2023-04-07T03:47:53;98958.72;;;5.83;100.00
11349;BME280;5729;43.570;27.826;2023-04-07T03:50:19;98965.19;;;5.82;100.00
11349;BME280;5729;43.570;27.826;2023-04-07T03:52:44;98966.47;;;5.76;100.00
11349;BME280;5729;43.570;27.826;2023-04-07T03:55:10;98961.25;;;5.79;100.00
11349;BME280;5729;43.570;27.826;2023-04-07T03:57:35;98958.25;;;5.81;100.00
11349;BME280;5729;43.570;27.826;2023-04-07T04:00:01;98966.59;;;5.79;100.00
11349;BME280;5729;43.570;27.826;2023-04-07T04:02:27;98975.50;;;5.92;100.00
11349;BME280;5729;43.570;27.826;2023-04-07T04:04:52;98977.59;;;5.87;100.00
11349;BME280;5729;43.570;27.826;2023-04-07T04:07:17;98979.19;;;6.00;100.00
11349;BME280;5729;43.570;27.826;2023-04-07T04:09:43;98988.16;;;6.04;100.00
11349;BME280;5729;43.570;27.826;2023-04-07T04:12:09;98985.28;;;6.09;100.00
11349;BME280;5729;43.570;27.826;2023-04-07T04:14:34;98995.13;;;6.17;100.00
11349;BME280;5729;43.570;27.826;2023-04-07T04:17:00;98987.19;;;6.08;100.00
11349;BME280;5729;43.570;27.826;2023-04-07T04:19:25;98985.97;;;6.18;100.00
11349;BME280;5729;43.570;27.826;2023-04-07T04:21:51;98992.69;;;6.24;100.00
11349;BME280;5729;43.570;27.826;2023-04-07T04:24:16;98991.38;;;6.30;100.00
11349;BME280;5729;43.570;27.826;2023-04-07T04:26:41;98994.91;;;6.22;100.00
11349;BME280;5729;43.570;27.826;2023-04-07T04:29:07;98990.38;;;6.02;100.00
11349;BME280;5729;43.570;27.826;2023-04-07T04:31:32;99000.06;;;6.27;100.00
11349;BME280;5729;43.570;27.826;2023-04-07T04:33:58;98995.50;;;6.28;100.00
11349;BME280;5729;43.570;27.826;2023-04-07T04:36:23;99003.31;;;6.33;100.00
11349;BME280;5729;43.570;27.826;2023-04-07T04:38:49;98995.28;;;6.33;100.00
11349;BME280;5729;43.570;27.826;2023-04-07T04:41:14;99000.31;;;6.34;100.00
11349;BME280;5729;43.570;27.826;2023-04-07T04:43:40;99012.75;;;6.51;100.00
11349;BME280;5729;43.570;27.826;2023-04-07T04:46:05;99009.41;;;6.54;100.00
11349;BME280;5729;43.570;27.826;2023-04-07T04:48:31;99007.75;;;6.62;100.00
11349;BME280;5729;43.570;27.826;2023-04-07T04:50:56;99010.41;;;6.49;100.00
11349;BME280;5729;43.570;27.826;2023-04-07T04:53:22;99015.34;;;6.60;100.00
11349;BME280;5729;43.570;27.826;2023-04-07T04:55:47;99011.47;;;6.36;100.00
11349;BME280;5729;43.570;27.826;2023-04-07T04:58:17;99021.25;;;6.53;100.00
11349;BME280;5729;43.570;27.826;2023-04-07T05:00:43;99018.44;;;6.49;100.00
11349;BME280;5729;43.570;27.826;2023-04-07T05:03:08;99026.03;;;6.60;100.00
11349;BME280;5729;43.570;27.826;2023-04-07T05:05:34;99026.84;;;6.72;100.00
11349;BME280;5729;43.570;27.826;2023-04-07T05:07:59;99025.84;;;6.65;100.00
11349;BME280;5729;43.570;27.826;2023-04-07T05:10:25;99036.28;;;6.57;100.00
11349;BME280;5729;43.570;27.826;2023-04-07T05:12:50;99034.78;;;6.81;100.00
11349;BME280;5729;43.570;27.826;2023-04-07T05:15:16;99040.16;;;6.93;100.00
11349;BME280;5729;43.570;27.826;2023-04-07T05:17:41;99043.31;;;7.07;100.00
11349;BME280;5729;43.570;27.826;2023-04-07T05:20:08;99045.91;;;7.16;100.00
11349;BME280;5729;43.570;27.826;2023-04-07T05:22:34;99045.13;;;7.27;100.00
11349;BME280;5729;43.570;27.826;2023-04-07T05:25:00;99041.78;;;7.43;100.00
11349;BME280;5729;43.570;27.826;2023-04-07T05:27:25;99051.16;;;7.61;95.15
11349;BME280;5729;43.570;27.826;2023-04-07T05:29:51;99056.50;;;7.73;93.80
11349;BME280;5729;43.570;27.826;2023-04-07T05:32:17;99053.59;;;7.78;91.84
11349;BME280;5729;43.570;27.826;2023-04-07T05:34:43;99054.72;;;7.77;89.06
11349;BME280;5729;43.570;27.826;2023-04-07T05:37:08;99053.47;;;7.75;90.15
11349;BME280;5729;43.570;27.826;2023-04-07T05:39:34;99052.88;;;7.93;92.76
11349;BME280;5729;43.570;27.826;2023-04-07T05:41:59;99055.38;;;7.86;88.12
11349;BME280;5729;43.570;27.826;2023-04-07T05:44:26;99065.63;;;7.96;88.24
11349;BME280;5729;43.570;27.826;2023-04-07T05:46:51;99066.28;;;8.06;93.20
11349;BME280;5729;43.570;27.826;2023-04-07T05:49:17;99060.22;;;8.09;84.70
11349;BME280;5729;43.570;27.826;2023-04-07T05:51:42;99061.66;;;8.18;83.97
11349;BME280;5729;43.570;27.826;2023-04-07T05:54:07;99058.00;;;8.11;84.20
11349;BME280;5729;43.570;27.826;2023-04-07T05:56:33;99061.53;;;8.15;88.55
11349;BME280;5729;43.570;27.826;2023-04-07T05:58:58;99066.56;;;7.76;92.84
11349;BME280;5729;43.570;27.826;2023-04-07T06:01:26;98987.34;;;7.67;84.36
11349;BME280;5729;43.570;27.826;2023-04-07T06:03:51;99061.94;;;8.41;85.54
11349;BME280;5729;43.570;27.826;2023-04-07T06:06:17;99070.09;;;8.45;81.99
11349;BME280;5729;43.570;27.826;2023-04-07T06:08:42;99064.03;;;8.48;81.96
11349;BME280;5729;43.570;27.826;2023-04-07T06:11:08;99073.66;;;8.77;75.01
11349;BME280;5729;43.570;27.826;2023-04-07T06:13:33;99062.22;;;8.80;74.65
11349;BME280;5729;43.570;27.826;2023-04-07T06:15:59;99067.16;;;8.78;77.90
11349;BME280;5729;43.570;27.826;2023-04-07T06:18:24;99074.38;;;9.21;78.10
11349;BME280;5729;43.570;27.826;2023-04-07T06:20:50;99075.34;;;9.13;76.57
11349;BME280;5729;43.570;27.826;2023-04-07T06:23:15;99066.16;;;9.29;73.84
11349;BME280;5729;43.570;27.826;2023-04-07T06:25:41;99083.94;;;9.34;73.11
11349;BME280;5729;43.570;27.826;2023-04-07T06:28:06;99074.81;;;9.54;67.83
11349;BME280;5729;43.570;27.826;2023-04-07T06:30:33;99081.78;;;9.24;67.69
11349;BME280;5729;43.570;27.826;2023-04-07T06:32:58;99080.72;;;9.13;71.78
11349;BME280;5729;43.570;27.826;2023-04-07T06:35:25;99078.38;;;9.42;74.30
11349;BME280;5729;43.570;27.826;2023-04-07T06:37:51;99079.84;;;9.56;68.19
11349;BME280;5729;43.570;27.826;2023-04-07T06:40:17;99075.97;;;9.88;68.96
11349;BME280;5729;43.570;27.826;2023-04-07T06:42:43;99075.09;;;9.84;64.53
11349;BME280;5729;43.570;27.826;2023-04-07T06:45:08;99076.97;;;9.48;65.47
11349;BME280;5729;43.570;27.826;2023-04-07T06:47:34;99089.84;;;9.90;63.01
11349;BME280;5729;43.570;27.826;2023-04-07T06:50:00;99087.28;;;10.13;64.89
11349;BME280;5729;43.570;27.826;2023-04-07T06:52:25;99098.13;;;9.81;65.82
11349;BME280;5729;43.570;27.826;2023-04-07T06:54:50;99095.50;;;9.85;61.46
11349;BME280;5729;43.570;27.826;2023-04-07T06:57:16;99094.66;;;9.81;60.79
11349;BME280;5729;43.570;27.826;2023-04-07T06:59:41;99104.28;;;9.82;59.61
11349;BME280;5729;43.570;27.826;2023-04-07T07:02:07;99101.09;;;9.76;58.38
11349;BME280;5729;43.570;27.826;2023-04-07T07:04:35;99052.69;;;9.45;63.98
11349;BME280;5729;43.570;27.826;2023-04-07T07:07:00;99099.53;;;10.10;63.23
11349;BME280;5729;43.570;27.826;2023-04-07T07:09:26;99097.44;;;10.19;63.92
11349;BME280;5729;43.570;27.826;2023-04-07T07:11:52;99107.31;;;10.50;63.16
11349;BME280;5729;43.570;27.826;2023-04-07T07:14:17;99108.28;;;10.62;62.34
11349;BME280;5729;43.570;27.826;2023-04-07T07:16:43;99110.28;;;11.07;56.95
11349;BME280;5729;43.570;27.826;2023-04-07T07:19:08;99114.63;;;11.11;54.72
11349;BME280;5729;43.570;27.826;2023-04-07T07:21:34;99098.69;;;11.03;58.11
11349;BME280;5729;43.570;27.826;2023-04-07T07:23:59;99132.34;;;10.89;55.16
11349;BME280;5729;43.570;27.826;2023-04-07T07:26:25;99129.59;;;11.09;52.43
11349;BME280;5729;43.570;27.826;2023-04-07T07:28:51;99122.91;;;11.22;55.35
11349;BME280;5729;43.570;27.826;2023-04-07T07:31:17;99131.34;;;11.20;53.90
11349;BME280;5729;43.570;27.826;2023-04-07T07:33:42;99133.44;;;11.53;53.26
11349;BME280;5729;43.570;27.826;2023-04-07T07:36:10;99132.91;;;11.67;51.14
11349;BME280;5729;43.570;27.826;2023-04-07T07:38:36;99133.16;;;11.81;50.78
11349;BME280;5729;43.570;27.826;2023-04-07T07:41:02;99124.59;;;12.28;53.15
11349;BME280;5729;43.570;27.826;2023-04-07T07:43:27;99124.88;;;12.87;51.73
11349;BME280;5729;43.570;27.826;2023-04-07T07:45:53;99124.47;;;13.18;46.26
11349;BME280;5729;43.570;27.826;2023-04-07T07:48:18;99123.53;;;12.36;46.97
11349;BME280;5729;43.570;27.826;2023-04-07T07:50:44;99127.69;;;12.60;48.60
11349;BME280;5729;43.570;27.826;2023-04-07T07:53:11;99142.34;;;12.93;47.18
11349;BME280;5729;43.570;27.826;2023-04-07T07:55:36;99129.56;;;12.90;46.12
11349;BME280;5729;43.570;27.826;2023-04-07T07:58:02;99136.97;;;12.96;45.94
11349;BME280;5729;43.570;27.826;2023-04-07T08:00:27;99135.44;;;12.62;46.80
11349;BME280;5729;43.570;27.826;2023-04-07T08:02:53;99141.31;;;13.04;46.00
11349;BME280;5729;43.570;27.826;2023-04-07T08:05:19;99134.16;;;13.19;44.99
11349;BME280;5729;43.570;27.826;2023-04-07T08:07:45;99136.00;;;13.56;45.93
11349;BME280;5729;43.570;27.826;2023-04-07T08:10:11;99139.31;;;13.82;44.71
11349;BME280;5729;43.570;27.826;2023-04-07T08:12:37;99131.66;;;13.44;43.05
11349;BME280;5729;43.570;27.826;2023-04-07T08:15:04;99135.09;;;13.89;43.65
11349;BME280;5729;43.570;27.826;2023-04-07T08:17:30;99151.50;;;14.06;43.17
11349;BME280;5729;43.570;27.826;2023-04-07T08:19:55;99140.53;;;13.89;42.22
11349;BME280;5729;43.570;27.826;2023-04-07T08:22:21;99138.28;;;13.98;42.32
11349;BME280;5729;43.570;27.826;2023-04-07T08:24:47;99145.41;;;14.27;42.23
11349;BME280;5729;43.570;27.826;2023-04-07T08:27:12;99142.84;;;13.87;42.17
11349;BME280;5729;43.570;27.826;2023-04-07T08:29:37;99140.22;;;14.63;40.72
11349;BME280;5729;43.570;27.826;2023-04-07T08:32:03;99138.84;;;15.43;39.74
11349;BME280;5729;43.570;27.826;2023-04-07T08:34:28;99127.03;;;17.85;38.31
11349;BME280;5729;43.570;27.826;2023-04-07T08:36:54;99129.47;;;20.31;33.08
11349;BME280;5729;43.570;27.826;2023-04-07T08:39:20;99140.56;;;22.75;29.11
11349;BME280;5729;43.570;27.826;2023-04-07T08:41:47;99135.78;;;23.68;29.26
11349;BME280;5729;43.570;27.826;2023-04-07T08:44:14;99142.38;;;24.83;27.34
11349;BME280;5729;43.570;27.826;2023-04-07T08:46:40;99139.25;;;28.06;23.48
11349;BME280;5729;43.570;27.826;2023-04-07T08:49:09;99135.22;;;29.69;22.88
11349;BME280;5729;43.570;27.826;2023-04-07T08:51:36;99137.31;;;30.35;20.93
11349;BME280;5729;43.570;27.826;2023-04-07T08:54:22;99149.16;;;30.81;21.21
11349;BME280;5729;43.570;27.826;2023-04-07T08:56:49;99146.88;;;27.72;21.37
11349;BME280;5729;43.570;27.826;2023-04-07T08:59:14;99143.25;;;25.91;23.00
11349;BME280;5729;43.570;27.826;2023-04-07T09:01:43;99143.25;;;23.42;26.17
11349;BME280;5729;43.570;27.826;2023-04-07T09:04:09;99146.97;;;21.49;27.41
11349;BME280;5729;43.570;27.826;2023-04-07T09:06:35;99141.97;;;19.89;28.82
11349;BME280;5729;43.570;27.826;2023-04-07T09:09:01;99152.66;;;18.73;31.78
11349;BME280;5729;43.570;27.826;2023-04-07T09:11:28;99157.28;;;18.01;33.50
11349;BME280;5729;43.570;27.826;2023-04-07T09:13:54;99141.34;;;18.37;34.10
11349;BME280;5729;43.570;27.826;2023-04-07T09:16:20;99137.53;;;17.38;35.33
11349;BME280;5729;43.570;27.826;2023-04-07T09:18:46;99151.88;;;17.46;36.54
11349;BME280;5729;43.570;27.826;2023-04-07T09:21:11;99153.09;;;16.50;35.71
11349;BME280;5729;43.570;27.826;2023-04-07T09:23:38;99145.44;;;17.18;35.50
11349;BME280;5729;43.570;27.826;2023-04-07T09:26:24;99144.63;;;16.34;35.10
11349;BME280;5729;43.570;27.826;2023-04-07T09:28:54;99142.75;;;15.46;36.52
11349;BME280;5729;43.570;27.826;2023-04-07T09:31:43;99162.16;;;15.58;36.69
11349;BME280;5729;43.570;27.826;2023-04-07T09:34:27;99148.16;;;15.53;38.88
11349;BME280;5729;43.570;27.826;2023-04-07T09:36:54;99155.81;;;14.94;38.24
11349;BME280;5729;43.570;27.826;2023-04-07T09:39:21;99147.28;;;14.96;37.38
11349;BME280;5729;43.570;27.826;2023-04-07T09:41:46;99141.69;;;14.49;38.01
11349;BME280;5729;43.570;27.826;2023-04-07T09:44:12;99150.81;;;14.20;39.68
11349;BME280;5729;43.570;27.826;2023-04-07T09:49:15;99163.13;;;13.59;41.71
11349;BME280;5729;43.570;27.826;2023-04-07T09:52:00;99156.31;;;13.76;40.95
11349;BME280;5729;43.570;27.826;2023-04-07T09:54:37;99153.22;;;13.77;42.51
11349;BME280;5729;43.570;27.826;2023-04-07T09:57:07;99159.69;;;13.62;43.60
11349;BME280;5729;43.570;27.826;2023-04-07T09:59:34;99157.97;;;13.88;42.76
11349;BME280;5729;43.570;27.826;2023-04-07T10:02:01;99163.44;;;13.98;41.94
11349;BME280;5729;43.570;27.826;2023-04-07T10:04:27;99162.44;;;14.21;42.43
11349;BME280;5729;43.570;27.826;2023-04-07T10:06:54;99156.84;;;14.61;39.26
11349;BME280;5729;43.570;27.826;2023-04-07T10:09:23;99148.84;;;14.97;38.48
11349;BME280;5729;43.570;27.826;2023-04-07T10:11:50;99140.69;;;14.93;40.02
11349;BME280;5729;43.570;27.826;2023-04-07T10:14:17;99160.97;;;15.42;38.27
11349;BME280;5729;43.570;27.826;2023-04-07T10:16:43;99157.88;;;16.04;39.04
11349;BME280;5729;43.570;27.826;2023-04-07T10:19:10;99162.16;;;16.12;37.02
11349;BME280;5729;43.570;27.826;2023-04-07T10:21:39;99158.50;;;16.72;36.86
11349;BME280;5729;43.570;27.826;2023-04-07T10:27:13;99167.03;;;18.02;35.17
11349;BME280;5729;43.570;27.826;2023-04-07T10:29:42;99157.19;;;19.40;33.87
11349;BME280;5729;43.570;27.826;2023-04-07T10:32:09;99171.03;;;19.56;31.95
11349;BME280;5729;43.570;27.826;2023-04-07T10:37:18;99153.91;;;22.60;28.00
11349;BME280;5729;43.570;27.826;2023-04-07T10:39:47;99161.31;;;23.30;27.31
11349;BME280;5729;43.570;27.826;2023-04-07T10:45:05;99160.81;;;19.07;30.09
11349;BME280;5729;43.570;27.826;2023-04-07T10:47:31;99171.28;;;17.55;31.85
11349;BME280;5729;43.570;27.826;2023-04-07T10:50:20;99167.44;;;16.76;34.87
11349;BME280;5729;43.570;27.826;2023-04-07T10:53:05;99175.75;;;16.12;37.21
11349;BME280;5729;43.570;27.826;2023-04-07T10:58:14;99167.16;;;15.35;38.94
11349;BME280;5729;43.570;27.826;2023-04-07T11:00:40;99169.03;;;15.03;41.24
11349;BME280;5729;43.570;27.826;2023-04-07T11:03:10;99182.88;;;14.73;38.45
11349;BME280;5729;43.570;27.826;2023-04-07T11:05:38;99180.97;;;13.64;38.66
11349;BME280;5729;43.570;27.826;2023-04-07T11:08:04;99184.75;;;13.15;40.14
11349;BME280;5729;43.570;27.826;2023-04-07T11:10:31;99181.06;;;13.34;41.90
11349;BME280;5729;43.570;27.826;2023-04-07T11:12:58;99177.28;;;13.86;39.74
11349;BME280;5729;43.570;27.826;2023-04-07T11:15:24;99164.22;;;14.02;40.85
11349;BME280;5729;43.570;27.826;2023-04-07T11:18:25;99174.25;;;14.53;38.62
11349;BME280;5729;43.570;27.826;2023-04-07T11:20:52;99169.34;;;14.83;38.25
11349;BME280;5729;43.570;27.826;2023-04-07T11:23:20;99176.38;;;14.95;38.35
11349;BME280;5729;43.570;27.826;2023-04-07T11:25:49;99172.22;;;15.33;37.64
11349;BME280;5729;43.570;27.826;2023-04-07T11:28:15;99168.13;;;14.67;37.37
11349;BME280;5729;43.570;27.826;2023-04-07T11:30:49;99176.78;;;14.25;39.17
11349;BME280;5729;43.570;27.826;2023-04-07T11:33:20;99174.22;;;14.49;39.05
11349;BME280;5729;43.570;27.826;2023-04-07T11:35:55;99170.59;;;15.07;38.20
11349;BME280;5729;43.570;27.826;2023-04-07T11:38:26;99171.06;;;15.41;39.98
11349;BME280;5729;43.570;27.826;2023-04-07T11:40:53;99176.16;;;15.71;37.99
11349;BME280;5729;43.570;27.826;2023-04-07T11:43:23;99172.25;;;15.83;37.44
11349;BME280;5729;43.570;27.826;2023-04-07T11:48:32;99170.25;;;15.26;38.96
11349;BME280;5729;43.570;27.826;2023-04-07T11:50:59;99166.25;;;14.85;39.90
11349;BME280;5729;43.570;27.826;2023-04-07T11:53:33;99172.81;;;14.73;39.20
11349;BME280;5729;43.570;27.826;2023-04-07T11:56:00;99169.78;;;15.03;39.03
11349;BME280;5729;43.570;27.826;2023-04-07T11:58:25;99162.41;;;14.93;38.50
11349;BME280;5729;43.570;27.826;2023-04-07T12:00:55;99161.19;;;14.07;39.17
11349;BME280;5729;43.570;27.826;2023-04-07T12:03:21;99169.00;;;13.68;40.85
11349;BME280;5729;43.570;27.826;2023-04-07T12:05:47;99167.56;;;13.81;41.02
11349;BME280;5729;43.570;27.826;2023-04-07T12:08:13;99179.25;;;13.93;40.72
11349;BME280;5729;43.570;27.826;2023-04-07T12:10:43;99174.53;;;13.82;42.01
11349;BME280;5729;43.570;27.826;2023-04-07T12:13:12;99175.06;;;13.55;42.73
11349;BME280;5729;43.570;27.826;2023-04-07T12:15:38;99164.63;;;14.04;43.65
11349;BME280;5729;43.570;27.826;2023-04-07T12:18:03;99169.63;;;14.53;41.59
11349;BME280;5729;43.570;27.826;2023-04-07T12:20:29;99165.75;;;14.55;39.80
11349;BME280;5729;43.570;27.826;2023-04-07T12:22:55;99176.13;;;14.45;40.85
11349;BME280;5729;43.570;27.826;2023-04-07T12:25:20;99166.72;;;14.22;42.24
11349;BME280;5729;43.570;27.826;2023-04-07T12:27:46;99177.22;;;14.34;40.27
11349;BME280;5729;43.570;27.826;2023-04-07T12:30:12;99170.50;;;14.10;42.23
11349;BME280;5729;43.570;27.826;2023-04-07T12:32:37;99170.94;;;14.19;43.38
11349;BME280;5729;43.570;27.826;2023-04-07T12:35:03;99172.94;;;14.29;42.95
11349;BME280;5729;43.570;27.826;2023-04-07T12:37:29;99179.16;;;14.33;41.66
11349;BME280;5729;43.570;27.826;2023-04-07T12:39:55;99179.00;;;14.12;41.56
11349;BME280;5729;43.570;27.826;2023-04-07T12:42:21;99177.03;;;14.05;41.74
11349;BME280;5729;43.570;27.826;2023-04-07T12:44:46;99180.78;;;13.90;41.71
11349;BME280;5729;43.570;27.826;2023-04-07T12:47:12;99174.00;;;13.63;41.90
11349;BME280;5729;43.570;27.826;2023-04-07T12:49:37;99177.41;;;13.56;44.36
11349;BME280;5729;43.570;27.826;2023-04-07T12:52:03;99169.88;;;13.76;44.38
11349;BME280;5729;43.570;27.826;2023-04-07T12:54:30;99170.81;;;13.98;45.41
11349;BME280;5729;43.570;27.826;2023-04-07T12:56:56;99165.13;;;14.17;44.45
11349;BME280;5729;43.570;27.826;2023-04-07T12:59:22;99177.69;;;14.43;42.49
11349;BME280;5729;43.570;27.826;2023-04-07T13:01:48;99173.84;;;14.51;43.24
11349;BME280;5729;43.570;27.826;2023-04-07T13:04:14;99172.69;;;14.52;41.72
11349;BME280;5729;43.570;27.826;2023-04-07T13:06:39;99179.47;;;14.25;42.50
11349;BME280;5729;43.570;27.826;2023-04-07T13:09:06;99184.56;;;14.30;43.07
11349;BME280;5729;43.570;27.826;2023-04-07T13:11:32;99183.81;;;13.81;42.38
11349;BME280;5729;43.570;27.826;2023-04-07T13:13:57;99183.56;;;13.50;43.43
11349;BME280;5729;43.570;27.826;2023-04-07T13:16:23;99190.56;;;13.17;44.10
11349;BME280;5729;43.570;27.826;2023-04-07T13:18:48;99189.16;;;12.97;44.83
11349;BME280;5729;43.570;27.826;2023-04-07T13:21:13;99191.09;;;12.96;45.50
11349;BME280;5729;43.570;27.826;2023-04-07T13:23:39;99179.38;;;12.85;45.90